createdAt,value
2023-03-19T00:02:02.078Z,2.20
2023-03-19T00:07:09.593Z,1.97
2023-03-19T00:12:13.409Z,2.03
2023-03-19T00:17:18.168Z,1.97
2023-03-19T00:22:21.930Z,2.60
2023-03-19T00:27:26.042Z,2.50
2023-03-19T00:32:31.738Z,2.97
2023-03-19T00:37:35.420Z,2.80
2023-03-19T00:42:38.725Z,2.50
2023-03-19T00:47:43.929Z,2.83
2023-03-19T00:52:47.262Z,3.10
2023-03-19T00:57:50.684Z,2.97
2023-03-19T01:02:55.365Z,3.20
2023-03-19T01:07:58.918Z,3.33
2023-03-19T01:13:02.299Z,3.13
2023-03-19T01:18:07.883Z,3.00
2023-03-19T01:23:11.158Z,3.10
2023-03-19T01:28:14.427Z,2.73
2023-03-19T01:33:20.727Z,2.77
2023-03-19T01:38:23.972Z,2.90
2023-03-19T01:43:29.483Z,2.70
2023-03-19T01:48:40.502Z,3.10
2023-03-19T01:53:47.384Z,3.20
2023-03-19T01:58:54.568Z,3.00
2023-03-19T02:04:00.997Z,3.27
2023-03-19T02:09:05.087Z,3.20
2023-03-19T02:14:09.682Z,3.53
2023-03-19T02:19:23.368Z,2.80
2023-03-19T02:24:33.693Z,2.90
2023-03-19T02:29:39.611Z,2.90
2023-03-19T02:34:44.087Z,3.60
2023-03-19T02:39:55.462Z,3.77
2023-03-19T02:45:00.312Z,3.30
2023-03-19T02:50:03.625Z,2.80
2023-03-19T02:55:08.078Z,2.73
2023-03-19T03:00:14.513Z,3.37
2023-03-19T03:05:17.911Z,3.53
2023-03-19T03:10:21.290Z,3.40
2023-03-19T03:15:26.018Z,2.87
2023-03-19T03:20:29.307Z,3.40
2023-03-19T03:25:32.535Z,3.27
2023-03-19T03:30:37.211Z,3.37
2023-03-19T03:35:40.727Z,3.63
2023-03-19T03:40:44.303Z,3.53
2023-03-19T03:45:49.923Z,3.10
2023-03-19T03:50:53.224Z,3.07
2023-03-19T03:55:56.533Z,3.13
2023-03-19T04:01:01.349Z,2.70
2023-03-19T04:06:04.712Z,2.70
2023-03-19T04:11:08.937Z,2.40
2023-03-19T04:16:14.108Z,3.00
2023-03-19T04:21:17.497Z,3.00
2023-03-19T04:26:20.825Z,2.60
2023-03-19T04:31:25.758Z,2.97
2023-03-19T04:36:29.091Z,3.00
2023-03-19T04:41:32.631Z,3.00
2023-03-19T04:46:37.343Z,2.90
2023-03-19T04:51:40.908Z,3.50
2023-03-19T04:56:44.135Z,3.50
2023-03-19T05:01:48.817Z,3.70
2023-03-19T05:06:52.520Z,3.10
2023-03-19T05:11:56.686Z,3.50
2023-03-19T05:17:01.601Z,3.90
2023-03-19T05:22:05.090Z,3.00
2023-03-19T05:27:08.372Z,3.20
2023-03-19T05:32:13.253Z,2.90
2023-03-19T05:37:17.223Z,3.00
2023-03-19T05:42:20.497Z,3.37
2023-03-19T05:47:25.405Z,3.30
2023-03-19T05:52:28.773Z,3.37
2023-03-19T05:57:32.192Z,3.60
2023-03-19T06:02:38.152Z,4.23
2023-03-19T06:07:41.405Z,3.27
2023-03-19T06:12:44.715Z,3.10
2023-03-19T06:17:49.307Z,3.20
2023-03-19T06:22:52.547Z,3.47
2023-03-19T06:27:55.809Z,3.00
2023-03-19T06:33:00.536Z,3.50
2023-03-19T06:38:03.826Z,3.30
2023-03-19T06:43:07.556Z,4.63
2023-03-19T06:48:12.233Z,5.17
2023-03-19T06:53:16.076Z,3.90
2023-03-19T06:58:19.284Z,4.00
2023-03-19T07:03:24.105Z,4.10
2023-03-19T07:08:29.894Z,3.53
2023-03-19T07:13:33.268Z,4.13
2023-03-19T07:18:38.024Z,4.77
2023-03-19T07:23:41.656Z,4.77
2023-03-19T07:28:44.929Z,4.87
2023-03-19T07:33:49.621Z,5.60
2023-03-19T07:38:52.861Z,4.83
2023-03-19T07:43:56.117Z,5.07
2023-03-19T07:49:00.812Z,5.43
2023-03-19T07:54:04.281Z,5.43
2023-03-19T07:59:07.838Z,4.87
2023-03-19T08:04:12.562Z,4.57
2023-03-19T08:09:15.993Z,4.20
2023-03-19T08:14:22.606Z,4.57
2023-03-19T08:19:27.367Z,4.30
2023-03-19T08:24:30.855Z,5.40
2023-03-19T08:29:34.359Z,4.53
2023-03-19T08:34:39.097Z,4.77
2023-03-19T08:39:42.540Z,4.13
2023-03-19T08:44:45.824Z,5.20
2023-03-19T08:49:50.480Z,4.80
2023-03-19T08:54:53.768Z,4.30
2023-03-19T08:59:57.141Z,5.03
2023-03-19T09:05:01.875Z,4.90
2023-03-19T09:10:05.791Z,4.10
2023-03-19T09:15:10.065Z,3.77
2023-03-19T09:20:14.882Z,3.83
2023-03-19T09:25:18.258Z,3.37
2023-03-19T09:30:21.936Z,3.23
2023-03-19T09:35:31.260Z,4.20
2023-03-19T09:40:39.128Z,3.50
2023-03-19T09:45:42.506Z,4.30
2023-03-19T09:50:49.140Z,4.10
2023-03-19T09:55:54.474Z,3.47
2023-03-19T10:01:00.209Z,3.00
2023-03-19T10:06:18.877Z,3.50
2023-03-19T10:11:48.476Z,3.00
2023-03-19T10:16:55.613Z,3.20
2023-03-19T10:22:03.722Z,3.30
2023-03-19T10:27:13.226Z,3.23
2023-03-19T10:32:20.436Z,3.30
2023-03-19T10:37:26.826Z,3.83
2023-03-19T10:42:54.745Z,3.90
2023-03-19T10:47:58.614Z,3.63
2023-03-19T10:53:08.429Z,3.70
2023-03-19T10:58:18.787Z,3.10
2023-03-19T11:03:32.228Z,3.27
2023-03-19T11:08:38.977Z,3.07
2023-03-19T11:13:42.287Z,3.23
2023-03-19T11:18:50.385Z,3.10
2023-03-19T11:24:02.203Z,3.10
2023-03-19T11:29:06.616Z,3.30
2023-03-19T11:34:30.682Z,2.90
2023-03-19T11:39:46.106Z,3.43
2023-03-19T11:45:01.792Z,2.93
2023-03-19T11:50:18.734Z,3.03
2023-03-19T11:55:29.972Z,2.93
2023-03-19T12:00:40.495Z,3.10
2023-03-19T12:05:53.647Z,2.83
2023-03-19T12:11:10.028Z,2.40
2023-03-19T12:16:22.605Z,2.43
2023-03-19T12:21:37.701Z,2.60
2023-03-19T12:26:57.709Z,2.80
2023-03-19T12:32:22.990Z,2.67
2023-03-19T12:37:32.923Z,2.67
2023-03-19T12:42:42.485Z,2.60
2023-03-19T12:47:48.445Z,2.40
2023-03-19T12:52:56.516Z,2.80
2023-03-19T12:58:10.143Z,2.40
2023-03-19T13:03:18.807Z,2.77
2023-03-19T13:08:29.297Z,2.60
2023-03-19T13:13:44.734Z,2.80
2023-03-19T13:18:59.470Z,2.63
2023-03-19T13:24:10.176Z,2.47
2023-03-19T13:29:21.430Z,2.03
2023-03-19T13:34:28.869Z,2.47
2023-03-19T13:39:35.470Z,2.40
2023-03-19T13:44:49.697Z,2.63
2023-03-19T13:50:27.932Z,2.40
2023-03-19T13:55:34.781Z,2.50
2023-03-19T14:00:59.667Z,2.50
2023-03-19T14:06:04.312Z,2.30
2023-03-19T14:11:09.510Z,2.60
2023-03-19T14:16:23.478Z,2.37
2023-03-19T14:21:36.204Z,2.20
2023-03-19T14:26:45.382Z,2.40
2023-03-19T14:31:53.606Z,2.60
2023-03-19T14:37:02.988Z,2.07
2023-03-19T14:42:09.041Z,2.30
2023-03-19T14:47:57.362Z,2.00
2023-03-19T14:53:06.847Z,2.60
2023-03-19T14:58:13.067Z,2.00
2023-03-19T15:03:24.119Z,1.90
2023-03-19T15:08:32.960Z,2.60
2023-03-19T15:13:48.409Z,2.67
2023-03-19T15:18:51.995Z,2.20
2023-03-19T15:23:56.861Z,2.37
2023-03-19T15:29:00.927Z,3.10
2023-03-19T15:34:20.531Z,2.37
2023-03-19T15:39:28.346Z,2.60
2023-03-19T15:44:38.813Z,2.73
2023-03-19T15:49:49.155Z,2.80
2023-03-19T15:54:56.633Z,2.33
2023-03-19T16:00:04.539Z,3.80
2023-03-19T16:05:22.040Z,4.17
2023-03-19T16:10:44.203Z,3.07
2023-03-19T16:15:56.013Z,3.07
2023-03-19T16:21:12.277Z,3.03
2023-03-19T16:26:24.045Z,2.90
2023-03-19T16:31:32.682Z,3.03
2023-03-19T16:36:36.948Z,2.97
2023-03-19T16:41:43.674Z,3.10
2023-03-19T16:46:50.019Z,2.90
2023-03-19T16:51:54.248Z,2.63
2023-03-19T16:57:07.543Z,2.60
2023-03-19T17:02:16.908Z,2.93
2023-03-19T17:07:21.685Z,2.67
2023-03-19T17:12:27.538Z,2.77
2023-03-19T17:17:34.768Z,2.00
2023-03-19T17:22:40.100Z,2.33
2023-03-19T17:27:49.279Z,2.47
2023-03-19T17:32:56.562Z,2.60
2023-03-19T17:38:01.870Z,2.50
2023-03-19T17:43:12.231Z,2.30
2023-03-19T17:48:23.307Z,4.43
2023-03-19T17:53:29.914Z,2.13
2023-03-19T17:58:37.017Z,2.00
2023-03-19T18:03:42.242Z,2.27
2023-03-19T18:08:46.828Z,2.00
2023-03-19T18:13:53.118Z,2.10
2023-03-19T18:19:00.368Z,1.47
2023-03-19T18:24:06.826Z,1.40
2023-03-19T18:29:13.870Z,1.87
2023-03-19T18:34:19.557Z,1.77
2023-03-19T18:39:25.015Z,1.30
2023-03-19T18:44:33.269Z,1.40
2023-03-19T18:49:41.454Z,1.17
2023-03-19T18:54:46.561Z,1.50
2023-03-19T18:59:55.197Z,1.47
2023-03-19T19:05:03.391Z,1.67
2023-03-19T19:10:12.794Z,1.63
2023-03-19T19:15:25.300Z,1.40
2023-03-19T19:20:31.994Z,1.60
2023-03-19T19:25:38.747Z,1.70
2023-03-19T19:30:51.673Z,1.40
2023-03-19T19:35:57.153Z,1.20
2023-03-19T19:41:05.153Z,1.27
2023-03-19T19:46:13.946Z,1.50
2023-03-19T19:51:22.071Z,2.10
2023-03-19T19:56:31.873Z,2.17
2023-03-19T20:01:41.069Z,2.10
2023-03-19T20:06:46.894Z,2.33
2023-03-19T20:11:52.664Z,2.17
2023-03-19T20:17:00.200Z,1.70
2023-03-19T20:22:05.434Z,1.87
2023-03-19T20:27:19.388Z,1.77
2023-03-19T20:32:33.699Z,1.40
2023-03-19T20:37:38.872Z,1.50
2023-03-19T20:42:46.101Z,1.40
2023-03-19T20:47:56.502Z,1.60
2023-03-19T20:53:06.756Z,2.10
2023-03-19T20:58:23.210Z,1.67
2023-03-19T21:03:32.253Z,1.40
2023-03-19T21:08:40.531Z,1.70
2023-03-19T21:13:45.608Z,1.83
2023-03-19T21:18:52.659Z,1.83
2023-03-19T21:23:59.740Z,2.70
2023-03-19T21:29:08.787Z,2.93
2023-03-19T21:34:19.164Z,2.47
2023-03-19T21:39:22.512Z,2.90
2023-03-19T21:44:29.855Z,3.03
2023-03-19T21:49:35.258Z,2.70
2023-03-19T21:54:38.556Z,2.97
2023-03-19T21:59:42.987Z,3.10
2023-03-19T22:04:47.647Z,2.80
2023-03-19T22:09:51.427Z,2.60
2023-03-19T22:14:55.094Z,3.00
2023-03-19T22:19:59.924Z,2.37
2023-03-19T22:25:03.200Z,2.60
2023-03-19T22:30:07.668Z,2.30
2023-03-19T22:35:18.262Z,2.70
2023-03-19T22:40:21.834Z,2.30
2023-03-19T22:45:29.000Z,2.40
2023-03-19T22:50:34.036Z,2.27
2023-03-19T22:55:38.297Z,2.40
2023-03-19T23:00:41.860Z,2.70
2023-03-19T23:05:49.787Z,3.10
2023-03-19T23:10:54.458Z,2.90
2023-03-19T23:16:00.987Z,2.20
2023-03-19T23:21:06.078Z,2.30
2023-03-19T23:26:18.808Z,2.17
2023-03-19T23:31:58.789Z,2.17
2023-03-19T23:37:03.518Z,1.97
2023-03-19T23:42:08.719Z,2.23
2023-03-19T23:47:12.245Z,2.07
2023-03-19T23:52:17.064Z,2.17
2023-03-19T23:57:21.638Z,2.20
